Time;durP1;ratioP1;P1;durP2;ratioP2;P2;SDS_P1;SDS_P2;PMS_P1;PMS_P2;Temp;Humidity;BMP_temperature;BMP_pressure;BME280_temperature;BME280_humidity;BME280_pressure;Samples;Min_cycle;Max_cycle;Signal;HPM_P1;HPM_P2
2022/12/10 00:00:18;;;;;;;42.80;20.10;;;-0.30;99.90;;;;;;5057261;28;20207;-79
2022/12/10 00:02:44;;;;;;;41.53;21.17;;;-0.40;99.90;;;;;;5057324;28;20195;-79
2022/12/10 00:05:09;;;;;;;37.70;20.30;;;-0.40;99.90;;;;;;5072046;28;20195;-79
2022/12/10 00:07:35;;;;;;;39.77;20.50;;;-0.40;99.90;;;;;;5072106;28;20182;-80
2022/12/10 00:10:00;;;;;;;40.33;20.50;;;-0.40;99.90;;;;;;5071794;28;20174;-80
2022/12/10 00:12:26;;;;;;;38.50;21.03;;;-0.40;99.90;;;;;;5071674;28;20720;-79
2022/12/10 00:14:52;;;;;;;40.13;20.13;;;-0.40;99.90;;;;;;5056603;28;20174;-79
2022/12/10 00:17:17;;;;;;;38.73;21.33;;;-0.40;99.90;;;;;;5071807;28;20294;-79
2022/12/10 00:19:42;;;;;;;46.73;21.50;;;-0.40;99.90;;;;;;5056742;28;20638;-79
2022/12/10 00:22:08;;;;;;;38.17;19.03;;;-0.50;99.90;;;;;;5056527;28;20179;-79
2022/12/10 00:24:34;;;;;;;39.80;20.53;;;-0.60;99.90;;;;;;5056501;28;20228;-79
2022/12/10 00:26:59;;;;;;;40.27;20.10;;;-0.50;99.90;;;;;;5071973;28;20291;-79
2022/12/10 00:29:25;;;;;;;38.80;19.20;;;-0.50;99.90;;;;;;5072032;28;20185;-79
2022/12/10 00:31:50;;;;;;;39.63;20.40;;;-0.50;99.90;;;;;;5071793;28;20225;-79
2022/12/10 00:34:16;;;;;;;38.33;19.63;;;-0.50;99.90;;;;;;5056908;28;20650;-79
2022/12/10 00:36:45;;;;;;;34.37;19.93;;;-0.50;99.90;;;;;;5056934;28;20215;-79
2022/12/10 00:39:13;;;;;;;42.03;20.77;;;-0.50;99.90;;;;;;5071770;28;20229;-79
2022/12/10 00:41:39;;;;;;;43.83;21.37;;;-0.50;99.90;;;;;;5072288;28;20205;-80
2022/12/10 00:44:05;;;;;;;39.23;20.73;;;-0.60;99.90;;;;;;5056516;28;20268;-79
2022/12/10 00:46:31;;;;;;;39.33;19.80;;;-0.60;99.90;;;;;;5070630;28;20221;-79
2022/12/10 00:48:57;;;;;;;40.33;20.80;;;-0.60;99.90;;;;;;5070676;28;20210;-79
2022/12/10 00:51:25;;;;;;;41.70;20.13;;;-0.60;99.90;;;;;;5070470;28;20186;-78
2022/12/10 00:53:52;;;;;;;40.27;20.97;;;-0.60;99.90;;;;;;5056144;28;20184;-79
2022/12/10 00:56:28;;;;;;;37.63;19.10;;;-0.70;99.90;;;;;;5055414;28;20674;-79
2022/12/10 00:58:55;;;;;;;37.13;19.17;;;-0.70;99.90;;;;;;5055800;28;20507;-79
2022/12/10 01:01:32;;;;;;;38.63;20.60;;;-0.70;99.90;;;;;;5070802;28;20186;-79
2022/12/10 01:04:02;;;;;;;43.17;20.90;;;-0.70;99.90;;;;;;5055824;28;20232;-79
2022/12/10 01:06:33;;;;;;;38.13;20.23;;;-0.70;99.90;;;;;;5055750;28;20200;-79
2022/12/10 01:09:02;;;;;;;39.43;21.70;;;-0.70;99.90;;;;;;5053918;28;20222;-79
2022/12/10 01:11:37;;;;;;;45.87;20.70;;;-0.70;99.90;;;;;;5070631;28;20605;-79
2022/12/10 01:14:03;;;;;;;39.40;20.20;;;-0.70;99.90;;;;;;5080046;28;20189;-79
2022/12/10 01:16:29;;;;;;;36.23;18.97;;;-0.80;99.90;;;;;;5084455;28;20700;-79
2022/12/10 01:18:56;;;;;;;40.37;20.47;;;-0.80;99.90;;;;;;5055917;28;20173;-79
2022/12/10 01:21:22;;;;;;;41.73;21.20;;;-0.80;99.90;;;;;;5070527;28;20654;-79
2022/12/10 01:23:50;;;;;;;37.57;19.80;;;-0.80;99.90;;;;;;5054946;28;20257;-79
2022/12/10 01:26:22;;;;;;;36.93;19.23;;;-0.80;99.90;;;;;;5055035;28;20244;-79
2022/12/10 01:28:48;;;;;;;39.87;19.30;;;-0.80;99.90;;;;;;5070355;28;20212;-80
2022/12/10 01:31:19;;;;;;;37.57;19.63;;;-0.90;99.90;;;;;;5070400;28;20204;-78
2022/12/10 01:33:45;;;;;;;36.10;18.57;;;-0.90;99.90;;;;;;5070295;28;20672;-80
2022/12/10 01:36:23;;;;;;;38.20;18.47;;;-0.90;99.90;;;;;;5070330;28;20617;-79
2022/12/10 01:38:49;;;;;;;31.73;17.87;;;-0.90;99.90;;;;;;5070133;28;20171;-79
2022/12/10 01:41:18;;;;;;;30.93;17.47;;;-0.90;99.90;;;;;;5069986;28;20252;-79
2022/12/10 01:43:53;;;;;;;37.53;18.97;;;-0.90;99.90;;;;;;5054500;28;20177;-79
2022/12/10 01:46:19;;;;;;;39.43;19.23;;;-0.90;99.90;;;;;;5069922;28;20214;-79
2022/12/10 01:48:45;;;;;;;41.83;21.00;;;-0.90;99.90;;;;;;5054737;28;20663;-79
2022/12/10 01:51:12;;;;;;;42.10;20.70;;;-0.90;99.90;;;;;;5055158;28;20371;-78
2022/12/10 01:53:37;;;;;;;35.47;19.43;;;-1.00;99.90;;;;;;5069659;28;20177;-79
2022/12/10 01:56:03;;;;;;;38.17;19.10;;;-1.00;99.90;;;;;;5070021;28;20780;-79
2022/12/10 01:58:29;;;;;;;37.70;19.67;;;-1.00;99.90;;;;;;5054758;28;20220;-79
2022/12/10 02:01:07;;;;;;;37.87;19.00;;;-1.10;99.90;;;;;;5055981;28;20526;-79
2022/12/10 02:03:48;;;;;;;34.00;18.97;;;-1.10;99.90;;;;;;5061484;28;20155;-79
2022/12/10 02:06:27;;;;;;;36.77;19.07;;;-1.10;99.90;;;;;;5061548;28;20190;-78
2022/12/10 02:08:59;;;;;;;38.53;19.07;;;-1.20;99.90;;;;;;5061192;28;20166;-80
2022/12/10 02:11:52;;;;;;;35.63;19.00;;;-1.30;99.90;;;;;;5060959;28;20633;-79
2022/12/10 02:14:33;;;;;;;35.70;18.37;;;-1.30;99.90;;;;;;5075729;28;20183;-78
2022/12/10 02:17:13;;;;;;;35.10;19.63;;;-1.30;99.90;;;;;;5059101;28;20581;-78
2022/12/10 02:20:04;;;;;;;36.23;18.77;;;-1.30;99.90;;;;;;5059268;28;20167;-78
2022/12/10 02:22:38;;;;;;;39.33;18.20;;;-1.30;99.90;;;;;;5060664;28;20563;-77
2022/12/10 02:29:03;;;;;;;36.67;18.17;;;-1.40;99.90;;;;;;5060354;28;20248;-78
2022/12/10 02:31:31;;;;;;;34.10;18.07;;;-1.50;99.90;;;;;;5059802;28;20298;-77
2022/12/10 02:33:59;;;;;;;37.80;19.07;;;-1.40;99.90;;;;;;5060619;28;20672;-78
2022/12/10 02:36:29;;;;;;;34.30;18.60;;;-1.40;99.90;;;;;;5060154;28;20209;-78
2022/12/10 02:38:56;;;;;;;34.50;18.63;;;-1.50;99.90;;;;;;5075807;28;20672;-78
2022/12/10 02:41:44;;;;;;;36.07;18.90;;;-1.50;99.90;;;;;;5060381;28;20181;-78
2022/12/10 02:44:13;;;;;;;35.77;18.33;;;-1.50;99.90;;;;;;5059370;28;20189;-78
2022/12/10 02:46:40;;;;;;;42.70;20.30;;;-1.40;99.90;;;;;;5060014;28;20697;-78
2022/12/10 02:49:08;;;;;;;43.43;20.10;;;-1.40;99.90;;;;;;5059600;28;20200;-78
2022/12/10 02:51:33;;;;;;;42.50;20.97;;;-1.40;99.90;;;;;;5058578;28;20182;-78
2022/12/10 02:54:05;;;;;;;43.90;19.47;;;-1.40;99.90;;;;;;5059790;28;20204;-78
2022/12/10 02:56:42;;;;;;;41.13;20.10;;;-1.40;99.90;;;;;;5059956;28;20227;-78
2022/12/10 02:59:29;;;;;;;38.20;19.07;;;-1.40;99.90;;;;;;5059847;28;20162;-78
2022/12/10 03:02:01;;;;;;;36.40;18.70;;;-1.30;99.90;;;;;;5059160;28;20216;-78
2022/12/10 03:05:08;;;;;;;39.20;19.53;;;-1.30;99.90;;;;;;5059410;28;20635;-78
2022/12/10 03:07:35;;;;;;;37.83;18.27;;;-1.20;99.90;;;;;;5059546;28;20186;-78
2022/12/10 03:10:12;;;;;;;40.87;19.50;;;-1.10;99.90;;;;;;5059389;28;20549;-78
2022/12/10 03:12:49;;;;;;;36.57;19.23;;;-1.10;99.90;;;;;;5055859;28;20238;-78
2022/12/10 03:15:16;;;;;;;36.07;18.37;;;-1.10;99.90;;;;;;5056996;28;20572;-81
2022/12/10 03:17:45;;;;;;;35.80;17.47;;;-1.00;99.90;;;;;;5057090;28;20205;-80
2022/12/10 03:20:13;;;;;;;35.97;18.53;;;-1.00;99.90;;;;;;5055633;28;20227;-79
2022/12/10 03:22:42;;;;;;;37.27;18.93;;;-1.00;99.90;;;;;;5056348;28;20636;-78
2022/12/10 03:25:10;;;;;;;36.60;18.80;;;-0.90;99.90;;;;;;5055292;28;20644;-78
2022/12/10 03:27:38;;;;;;;37.03;19.60;;;-0.90;99.90;;;;;;5054903;28;20204;-79
2022/12/10 03:30:05;;;;;;;36.13;18.97;;;-0.90;99.90;;;;;;5056388;28;20637;-79
2022/12/10 03:32:31;;;;;;;35.27;17.93;;;-0.90;99.90;;;;;;5056443;28;20184;-78
2022/12/10 03:34:58;;;;;;;36.43;19.47;;;-0.80;99.90;;;;;;5056317;28;20580;-79
2022/12/10 03:37:26;;;;;;;36.57;17.93;;;-0.80;99.90;;;;;;5056963;28;20259;-79
2022/12/10 03:39:52;;;;;;;38.73;20.63;;;-0.80;99.90;;;;;;5055496;28;20194;-79
2022/12/10 03:42:18;;;;;;;34.73;19.50;;;-0.80;99.90;;;;;;5055125;28;20186;-79
2022/12/10 03:44:44;;;;;;;40.23;19.27;;;-0.80;99.90;;;;;;5056469;28;20538;-79
2022/12/10 03:47:14;;;;;;;40.40;19.30;;;-0.70;99.90;;;;;;5056528;28;20273;-80
2022/12/10 03:49:40;;;;;;;36.17;18.37;;;-0.70;99.90;;;;;;5072010;28;20562;-79
2022/12/10 03:52:06;;;;;;;42.27;18.93;;;-0.70;99.90;;;;;;5056370;28;20175;-79
2022/12/10 03:54:31;;;;;;;36.90;18.93;;;-0.70;99.90;;;;;;5054741;28;20252;-79
2022/12/10 03:56:57;;;;;;;36.07;19.97;;;-0.60;99.90;;;;;;5056353;28;20245;-79
2022/12/10 03:59:23;;;;;;;32.87;18.07;;;-0.60;99.90;;;;;;5056309;28;20236;-80
2022/12/10 04:01:48;;;;;;;41.63;18.23;;;-0.60;99.90;;;;;;5056361;28;20690;-78
2022/12/10 04:04:14;;;;;;;33.57;19.73;;;-0.60;99.90;;;;;;5055953;28;20170;-79
2022/12/10 04:06:40;;;;;;;33.80;18.37;;;-0.60;99.90;;;;;;5056143;28;20206;-79
2022/12/10 04:09:06;;;;;;;35.30;18.40;;;-0.60;99.90;;;;;;5056502;28;20183;-79
2022/12/10 04:11:32;;;;;;;32.80;18.40;;;-0.60;99.90;;;;;;5054423;28;20190;-79
2022/12/10 04:16:41;;;;;;;41.33;19.17;;;-0.60;99.90;;;;;;5055810;28;20209;-78
2022/12/10 04:19:10;;;;;;;36.73;18.53;;;-0.50;99.90;;;;;;5070717;28;20171;-79
2022/12/10 04:27:12;;;;;;;44.10;20.80;;;-0.50;99.90;;;;;;5056497;28;20199;-79
2022/12/10 04:29:38;;;;;;;36.70;20.20;;;-0.50;99.90;;;;;;5055893;28;20550;-79
2022/12/10 04:32:03;;;;;;;35.17;19.53;;;-0.50;99.90;;;;;;5055889;28;20190;-79
2022/12/10 04:34:29;;;;;;;49.27;20.20;;;-0.50;99.90;;;;;;5055821;28;20174;-79
2022/12/10 04:36:57;;;;;;;39.87;20.03;;;-0.50;99.90;;;;;;5054144;28;20259;-79
2022/12/10 04:39:23;;;;;;;38.37;20.47;;;-0.50;99.90;;;;;;5055506;28;20187;-79
2022/12/10 04:41:49;;;;;;;39.33;20.37;;;-0.50;99.90;;;;;;5070120;28;20175;-79
2022/12/10 04:44:15;;;;;;;42.37;20.53;;;-0.60;99.90;;;;;;5060480;28;20174;-79
2022/12/10 04:46:41;;;;;;;40.17;20.60;;;-0.50;99.90;;;;;;5056106;28;20704;-79
2022/12/10 04:49:07;;;;;;;37.73;20.40;;;-0.50;99.90;;;;;;5057773;28;20178;-79
2022/12/10 04:51:32;;;;;;;40.87;20.33;;;-0.40;99.90;;;;;;5057122;28;20182;-79
2022/12/10 04:53:58;;;;;;;41.47;21.37;;;-0.50;99.90;;;;;;5056951;28;20186;-79
2022/12/10 04:56:24;;;;;;;37.03;19.47;;;-0.50;99.90;;;;;;5055351;28;20238;-79
2022/12/10 04:58:50;;;;;;;42.90;22.73;;;-0.40;99.90;;;;;;5055324;28;20651;-79
2022/12/10 05:01:17;;;;;;;52.03;22.90;;;-0.40;99.90;;;;;;5054811;28;20552;-79
2022/12/10 05:03:43;;;;;;;44.20;21.20;;;-0.40;99.90;;;;;;5054753;28;20227;-79
2022/12/10 05:06:11;;;;;;;39.80;21.13;;;-0.40;99.90;;;;;;5054804;28;20281;-79
2022/12/10 05:08:38;;;;;;;41.90;20.10;;;-0.40;99.90;;;;;;5056076;28;20303;-79
2022/12/10 05:11:10;;;;;;;43.33;21.10;;;-0.40;99.90;;;;;;5055899;28;20167;-79
2022/12/10 05:13:36;;;;;;;44.00;22.43;;;-0.40;99.90;;;;;;5055692;28;20641;-79
2022/12/10 05:16:03;;;;;;;43.17;21.07;;;-0.40;99.90;;;;;;5055167;28;20204;-79
2022/12/10 05:18:29;;;;;;;46.03;22.17;;;-0.40;99.90;;;;;;5055119;28;20666;-79
2022/12/10 05:20:54;;;;;;;42.20;20.77;;;-0.40;99.90;;;;;;5053800;28;20190;-79
2022/12/10 05:23:28;;;;;;;41.37;21.27;;;-0.40;99.90;;;;;;5055379;28;20253;-79
2022/12/10 05:26:06;;;;;;;42.73;19.90;;;-0.40;99.90;;;;;;5053992;28;20213;-79
2022/12/10 05:28:39;;;;;;;40.07;20.00;;;-0.40;99.90;;;;;;5055162;28;20187;-79
2022/12/10 05:31:11;;;;;;;41.77;19.10;;;-0.50;99.90;;;;;;5054063;28;20171;-79
2022/12/10 05:33:36;;;;;;;44.17;20.07;;;-0.50;99.90;;;;;;5055316;28;20172;-79
2022/12/10 05:36:03;;;;;;;35.80;19.20;;;-0.50;99.90;;;;;;5054889;28;20203;-79
2022/12/10 05:38:31;;;;;;;41.47;21.07;;;-0.50;99.90;;;;;;5055196;28;20174;-79
2022/12/10 05:41:13;;;;;;;37.07;19.70;;;-0.50;99.90;;;;;;5053856;28;20543;-79
2022/12/10 05:43:38;;;;;;;43.10;20.70;;;-0.50;99.90;;;;;;5053547;28;20183;-79
2022/12/10 05:46:07;;;;;;;34.97;18.83;;;-0.50;99.90;;;;;;5054735;28;20291;-79
2022/12/10 05:48:34;;;;;;;38.90;19.13;;;-0.50;99.90;;;;;;5053598;28;20307;-79
2022/12/10 06:03:26;;;;;;;41.33;22.27;;;-0.50;99.90;;;;;;5151812;27;20613;-77
2022/12/10 06:05:52;;;;;;;41.20;21.17;;;-0.50;99.90;;;;;;5132889;27;20263;-77
2022/12/10 06:08:17;;;;;;;39.23;19.97;;;-0.40;99.90;;;;;;5152620;27;20655;-78
2022/12/10 06:10:43;;;;;;;34.87;20.00;;;-0.40;99.90;;;;;;5134011;27;20179;-77
2022/12/10 06:13:09;;;;;;;35.93;19.33;;;-0.40;99.90;;;;;;5151662;27;20188;-77
2022/12/10 06:15:38;;;;;;;35.40;19.23;;;-0.40;99.90;;;;;;5151830;27;20160;-76
2022/12/10 06:18:03;;;;;;;35.03;17.97;;;-0.40;99.90;;;;;;5132890;27;20197;-77
2022/12/10 06:20:29;;;;;;;41.00;19.40;;;-0.30;99.90;;;;;;5151703;27;20167;-77
2022/12/10 06:22:54;;;;;;;40.20;20.60;;;-0.30;99.90;;;;;;5151208;27;20282;-77
2022/12/10 06:25:20;;;;;;;38.10;19.00;;;-0.30;99.90;;;;;;5151447;27;20165;-78
2022/12/10 06:27:45;;;;;;;40.20;18.57;;;-0.30;99.90;;;;;;5151489;27;20217;-78
2022/12/10 06:30:11;;;;;;;35.87;19.33;;;-0.30;99.90;;;;;;5132926;27;20215;-78
2022/12/10 06:32:37;;;;;;;36.60;19.50;;;-0.30;99.90;;;;;;5152311;27;20212;-77
2022/12/10 06:35:03;;;;;;;38.77;20.23;;;-0.30;99.90;;;;;;5134054;27;20181;-78
2022/12/10 06:37:29;;;;;;;44.50;20.17;;;-0.20;99.90;;;;;;5133978;27;20182;-78
2022/12/10 06:39:55;;;;;;;47.93;21.20;;;-0.20;99.90;;;;;;5152383;27;20168;-77
2022/12/10 06:42:20;;;;;;;57.57;25.43;;;-0.20;99.90;;;;;;5151820;27;20181;-78
2022/12/10 06:44:47;;;;;;;76.77;29.83;;;-0.20;99.90;;;;;;5151654;27;20629;-77
2022/12/10 06:47:13;;;;;;;73.80;29.73;;;-0.20;99.90;;;;;;5151953;27;20183;-77
2022/12/10 06:49:39;;;;;;;67.67;30.17;;;-0.10;99.90;;;;;;5152521;27;20172;-78
2022/12/10 06:52:04;;;;;;;72.20;30.03;;;-0.10;99.90;;;;;;5133191;27;20207;-77
2022/12/10 06:54:30;;;;;;;75.80;32.10;;;-0.10;99.90;;;;;;5151619;27;20583;-78
2022/12/10 06:56:56;;;;;;;72.40;31.33;;;-0.10;99.90;;;;;;5152263;27;20198;-77
2022/12/10 06:59:22;;;;;;;65.57;28.13;;;-0.10;99.90;;;;;;5133023;27;20196;-77
2022/12/10 07:01:48;;;;;;;75.50;31.17;;;-0.10;99.90;;;;;;5151711;27;20722;-75
2022/12/10 07:04:13;;;;;;;67.83;28.43;;;-0.10;99.90;;;;;;5120145;27;20229;-76
2022/12/10 07:06:39;;;;;;;65.30;27.97;;;-0.10;99.90;;;;;;5137498;27;20176;-77
2022/12/10 07:09:05;;;;;;;63.10;27.13;;;-0.10;99.90;;;;;;5138097;27;20179;-77
2022/12/10 07:11:31;;;;;;;57.97;27.23;;;-0.10;99.90;;;;;;5137699;27;20196;-77
2022/12/10 07:13:57;;;;;;;65.17;28.97;;;-0.10;99.90;;;;;;5137549;27;20196;-77
2022/12/10 07:16:28;;;;;;;64.83;29.53;;;-0.10;99.90;;;;;;5137536;27;20264;-77
2022/12/10 07:18:59;;;;;;;53.77;27.33;;;-0.10;99.90;;;;;;5138299;27;20585;-79
2022/12/10 07:21:27;;;;;;;64.90;26.90;;;-0.10;99.90;;;;;;5119609;27;20171;-77
2022/12/10 07:23:57;;;;;;;62.40;29.40;;;-0.10;99.90;;;;;;5118727;27;20286;-77
2022/12/10 07:26:24;;;;;;;62.23;28.40;;;-0.20;99.90;;;;;;5137233;27;20579;-77
2022/12/10 07:28:50;;;;;;;61.77;28.80;;;-0.10;99.90;;;;;;5137171;27;20187;-77
2022/12/10 07:31:15;;;;;;;71.77;29.83;;;-0.10;99.90;;;;;;5136807;27;20309;-77
2022/12/10 07:33:41;;;;;;;66.50;29.87;;;-0.10;99.90;;;;;;5118436;27;20688;-77
2022/12/10 07:36:09;;;;;;;61.90;29.30;;;-0.10;99.90;;;;;;5118615;27;20640;-77
2022/12/10 07:38:35;;;;;;;66.00;31.20;;;-0.20;99.90;;;;;;5136342;27;20200;-76
2022/12/10 07:41:05;;;;;;;66.70;30.60;;;-0.30;99.90;;;;;;5136297;27;20660;-76
2022/12/10 07:43:33;;;;;;;67.53;28.57;;;-0.30;99.90;;;;;;5117798;27;20200;-75
2022/12/10 07:46:07;;;;;;;63.37;28.07;;;-0.30;99.90;;;;;;5136036;27;20172;-76
2022/12/10 07:48:34;;;;;;;67.53;27.33;;;-0.30;99.90;;;;;;5118252;27;20172;-74
2022/12/10 07:51:00;;;;;;;65.83;30.17;;;-0.30;99.90;;;;;;5118913;27;20325;-77
2022/12/10 07:53:25;;;;;;;63.70;28.67;;;-0.30;99.90;;;;;;5140858;27;20231;-78
2022/12/10 07:55:51;;;;;;;66.83;29.50;;;-0.20;99.90;;;;;;5120280;27;20172;-78
2022/12/10 07:58:17;;;;;;;62.40;27.37;;;-0.30;99.90;;;;;;5120308;27;20610;-79
2022/12/10 08:00:42;;;;;;;60.13;28.50;;;-0.30;99.90;;;;;;5138676;27;20192;-78
2022/12/10 08:03:08;;;;;;;56.67;27.97;;;-0.50;99.90;;;;;;5138197;27;20635;-78
2022/12/10 08:05:33;;;;;;;60.80;28.63;;;-0.50;99.90;;;;;;5138300;27;20168;-78
2022/12/10 08:07:59;;;;;;;61.80;27.70;;;-0.50;99.90;;;;;;5120857;27;20197;-78
2022/12/10 08:10:24;;;;;;;59.33;26.87;;;-0.60;99.90;;;;;;5137859;27;20198;-78
2022/12/10 08:12:50;;;;;;;60.23;27.40;;;-0.60;99.90;;;;;;5118827;27;20225;-78
2022/12/10 08:15:15;;;;;;;58.43;26.17;;;-0.60;99.90;;;;;;5119308;27;20231;-79
2022/12/10 08:17:41;;;;;;;55.83;27.23;;;-0.60;99.90;;;;;;5120071;27;20220;-77
2022/12/10 08:20:07;;;;;;;58.30;27.23;;;-0.50;99.90;;;;;;5118532;27;20243;-77
2022/12/10 08:22:34;;;;;;;58.93;27.37;;;-0.50;99.90;;;;;;5137397;27;20607;-77
2022/12/10 08:24:59;;;;;;;57.13;24.90;;;-0.40;99.90;;;;;;5119462;27;20266;-77
2022/12/10 08:27:25;;;;;;;58.47;25.77;;;-0.40;99.90;;;;;;5118889;27;20234;-78
2022/12/10 08:29:51;;;;;;;60.57;27.97;;;-0.40;99.90;;;;;;5119592;27;20180;-78
2022/12/10 08:32:16;;;;;;;62.70;27.57;;;-0.40;99.90;;;;;;5138548;27;20218;-79
2022/12/10 08:34:42;;;;;;;57.77;27.13;;;-0.40;99.90;;;;;;5138724;27;20172;-80
2022/12/10 08:37:07;;;;;;;62.40;27.83;;;-0.50;99.90;;;;;;5138926;27;20176;-79
2022/12/10 08:39:33;;;;;;;59.73;27.07;;;-0.50;99.90;;;;;;5138425;27;20556;-79
2022/12/10 08:41:59;;;;;;;61.60;27.47;;;-0.40;99.90;;;;;;5137959;27;20172;-79
2022/12/10 08:44:24;;;;;;;61.73;27.73;;;-0.40;99.90;;;;;;5119087;27;20200;-79
2022/12/10 08:46:50;;;;;;;62.70;28.13;;;-0.40;99.90;;;;;;5137991;27;20564;-81
2022/12/10 08:49:16;;;;;;;60.60;27.87;;;-0.40;99.90;;;;;;5119424;27;20666;-78
2022/12/10 08:51:41;;;;;;;63.20;29.67;;;-0.40;99.90;;;;;;5119299;27;20252;-79
2022/12/10 08:54:07;;;;;;;58.30;26.10;;;-0.30;99.90;;;;;;5138604;27;20641;-79
2022/12/10 08:56:32;;;;;;;51.83;26.20;;;-0.30;99.90;;;;;;5119506;27;20172;-79
2022/12/10 08:58:58;;;;;;;60.50;28.97;;;-0.30;99.90;;;;;;5119416;27;20173;-79
2022/12/10 09:01:23;;;;;;;58.43;25.03;;;-0.30;99.90;;;;;;5119875;27;20557;-81
2022/12/10 09:03:50;;;;;;;58.23;26.53;;;-0.20;99.90;;;;;;5142432;27;20229;-79
2022/12/10 09:06:18;;;;;;;60.60;25.17;;;-0.20;99.90;;;;;;5123220;27;20202;-80
2022/12/10 09:08:44;;;;;;;56.73;26.13;;;-0.20;99.90;;;;;;5146052;27;20554;-79
2022/12/10 09:11:15;;;;;;;64.27;27.73;;;-0.20;99.90;;;;;;5124023;27;20214;-79
2022/12/10 09:13:41;;;;;;;68.37;26.10;;;-0.20;99.90;;;;;;5119437;27;20231;-79
2022/12/10 09:16:06;;;;;;;66.33;28.63;;;-0.20;99.90;;;;;;5141537;27;20239;-79
2022/12/10 09:18:32;;;;;;;70.13;26.73;;;-0.20;99.90;;;;;;5119072;27;20193;-79
2022/12/10 09:20:58;;;;;;;56.67;25.50;;;-0.20;99.90;;;;;;5119331;27;20186;-80
2022/12/10 09:23:24;;;;;;;61.27;25.93;;;-0.20;99.90;;;;;;5137060;27;20337;-79
2022/12/10 09:25:49;;;;;;;53.03;25.03;;;-0.20;99.90;;;;;;5117436;27;20176;-78
2022/12/10 09:28:15;;;;;;;60.97;25.60;;;-0.20;99.90;;;;;;5135888;27;20195;-78
2022/12/10 09:30:40;;;;;;;62.17;25.23;;;-0.20;99.90;;;;;;5117647;27;20198;-78
2022/12/10 09:33:06;;;;;;;53.83;24.50;;;-0.20;99.90;;;;;;5136467;27;20204;-78
2022/12/10 09:35:32;;;;;;;65.00;25.73;;;-0.20;99.90;;;;;;5117526;27;20176;-78
2022/12/10 09:37:57;;;;;;;59.20;25.03;;;-0.20;99.90;;;;;;5136113;27;20720;-78
2022/12/10 09:40:38;;;;;;;60.20;26.47;;;-0.20;99.90;;;;;;5135678;27;20215;-78
2022/12/10 09:43:15;;;;;;;57.97;26.20;;;-0.10;99.90;;;;;;5116530;28;20199;-77
2022/12/10 09:45:58;;;;;;;64.67;27.00;;;-0.10;99.90;;;;;;5134572;27;20248;-77
2022/12/10 09:48:41;;;;;;;60.53;25.80;;;-0.10;99.90;;;;;;5135065;27;20170;-76
2022/12/10 09:51:23;;;;;;;57.50;25.53;;;0.00;99.90;;;;;;5115412;28;20195;-76
2022/12/10 09:53:58;;;;;;;65.37;28.03;;;0.00;99.90;;;;;;5133683;28;20209;-76
2022/12/10 09:56:33;;;;;;;60.97;27.17;;;-0.10;99.90;;;;;;5115370;28;20174;-76
2022/12/10 09:59:03;;;;;;;61.87;27.17;;;0.00;99.90;;;;;;5115254;28;20240;-76
2022/12/10 10:01:32;;;;;;;64.33;27.97;;;0.00;99.90;;;;;;5133780;28;20188;-77
2022/12/10 10:03:57;;;;;;;65.53;26.90;;;0.00;99.90;;;;;;5109119;28;20213;-77
2022/12/10 10:06:25;;;;;;;54.30;26.23;;;0.00;99.90;;;;;;5115445;28;20193;-77
2022/12/10 10:08:54;;;;;;;48.33;24.23;;;-0.10;99.90;;;;;;5134276;28;20169;-77
2022/12/10 10:11:22;;;;;;;55.57;25.50;;;-0.20;99.90;;;;;;5115985;28;20284;-77
2022/12/10 10:14:08;;;;;;;54.87;25.27;;;-0.30;99.90;;;;;;5115295;28;20740;-76
2022/12/10 10:16:47;;;;;;;58.07;27.30;;;-0.20;99.90;;;;;;5133387;28;20571;-76
2022/12/10 10:19:15;;;;;;;61.40;27.80;;;-0.20;99.90;;;;;;5115427;28;20216;-76
2022/12/10 10:21:51;;;;;;;52.17;25.17;;;-0.10;99.90;;;;;;5114812;28;20180;-76
2022/12/10 10:24:24;;;;;;;49.83;23.73;;;-0.10;99.90;;;;;;5133359;28;20275;-75
2022/12/10 10:26:52;;;;;;;49.07;23.23;;;-0.20;99.90;;;;;;5114994;28;20184;-75
2022/12/10 10:29:21;;;;;;;42.07;21.23;;;-0.20;99.90;;;;;;5133176;28;20172;-75
2022/12/10 10:32:14;;;;;;;42.37;20.83;;;-0.10;99.90;;;;;;5114735;28;20901;-75
2022/12/10 10:34:40;;;;;;;46.27;23.07;;;-0.20;99.90;;;;;;5114914;28;20180;-75
2022/12/10 10:37:06;;;;;;;48.33;22.57;;;-0.10;99.90;;;;;;5133304;27;20171;-76
2022/12/10 10:39:35;;;;;;;47.67;23.07;;;0.00;99.90;;;;;;5136565;27;20169;-75
2022/12/10 10:42:08;;;;;;;45.27;22.33;;;0.00;99.90;;;;;;5118501;27;20195;-76
2022/12/10 10:44:37;;;;;;;46.93;21.30;;;0.10;99.90;;;;;;5137055;27;20172;-76
2022/12/10 10:47:22;;;;;;;41.20;21.00;;;0.20;99.90;;;;;;5138120;27;20184;-77
2022/12/10 10:49:48;;;;;;;42.03;21.83;;;0.20;99.90;;;;;;5136638;27;20270;-75
2022/12/10 10:52:16;;;;;;;44.50;21.73;;;0.30;99.90;;;;;;5136683;27;20284;-75
2022/12/10 10:54:43;;;;;;;49.03;22.60;;;0.30;99.90;;;;;;5118187;27;20180;-75
2022/12/10 10:57:21;;;;;;;43.30;21.77;;;0.40;99.90;;;;;;5118126;27;20183;-75
2022/12/10 10:59:47;;;;;;;46.80;22.87;;;0.50;99.90;;;;;;5118243;27;20172;-75
2022/12/10 11:02:17;;;;;;;43.93;22.97;;;0.50;99.90;;;;;;5117858;27;20192;-77
2022/12/10 11:04:50;;;;;;;45.07;22.93;;;0.60;99.90;;;;;;5119878;27;20253;-79
2022/12/10 11:07:29;;;;;;;48.80;23.10;;;0.70;99.90;;;;;;5137050;27;20172;-78
2022/12/10 11:09:56;;;;;;;42.00;21.50;;;0.70;99.90;;;;;;5137685;27;20544;-81
2022/12/10 11:12:34;;;;;;;45.20;22.57;;;0.70;99.90;;;;;;5138140;27;20227;-79
2022/12/10 11:14:59;;;;;;;43.23;22.63;;;0.70;99.90;;;;;;5137569;27;20161;-78
2022/12/10 11:17:26;;;;;;;38.33;21.30;;;0.70;99.90;;;;;;5137430;27;20175;-78
2022/12/10 11:19:59;;;;;;;39.37;20.27;;;0.70;99.90;;;;;;5118604;27;20173;-78
2022/12/10 11:22:31;;;;;;;35.43;19.80;;;0.60;99.90;;;;;;5136973;27;20621;-78
2022/12/10 11:24:58;;;;;;;37.13;20.00;;;0.50;99.90;;;;;;5117897;27;20260;-78
2022/12/10 11:27:43;;;;;;;37.33;19.77;;;0.50;99.90;;;;;;5119077;27;20212;-79
2022/12/10 11:30:14;;;;;;;36.57;19.43;;;0.50;99.90;;;;;;5120172;27;20172;-79
2022/12/10 11:33:01;;;;;;;40.03;20.03;;;0.50;99.90;;;;;;5120182;27;20216;-79
2022/12/10 11:35:40;;;;;;;37.33;19.93;;;0.50;99.90;;;;;;5120764;27;20243;-79
2022/12/10 11:38:25;;;;;;;39.03;19.97;;;0.60;99.90;;;;;;5119728;27;20176;-79
2022/12/10 11:41:04;;;;;;;38.77;19.17;;;0.60;99.90;;;;;;5138568;27;20179;-79
2022/12/10 11:44:00;;;;;;;38.67;20.07;;;0.70;99.90;;;;;;5138658;27;20284;-79
2022/12/10 11:46:57;;;;;;;42.33;21.33;;;0.70;99.90;;;;;;5120843;27;20522;-81
2022/12/10 11:49:53;;;;;;;40.57;20.33;;;0.80;99.90;;;;;;5139271;27;20215;-79
2022/12/10 11:52:58;;;;;;;34.07;18.93;;;0.80;99.90;;;;;;5139949;27;20181;-82
2022/12/10 11:56:07;;;;;;;35.37;18.87;;;0.80;99.90;;;;;;5119853;27;20173;-81
2022/12/10 11:58:41;;;;;;;36.03;18.80;;;0.70;99.90;;;;;;5138279;27;20182;-81
2022/12/10 12:01:19;;;;;;;32.33;18.27;;;0.60;99.90;;;;;;5137562;27;20184;-81
2022/12/10 12:04:17;;;;;;;39.17;17.90;;;0.60;99.90;;;;;;5137610;27;20213;-80
2022/12/10 12:06:49;;;;;;;30.73;16.27;;;0.50;99.90;;;;;;5118945;27;20180;-81
2022/12/10 12:09:51;;;;;;;33.77;17.47;;;0.50;99.90;;;;;;5119188;27;20655;-80
2022/12/10 12:12:22;;;;;;;29.60;15.43;;;0.50;99.90;;;;;;5138424;27;20188;-81
2022/12/10 12:15:20;;;;;;;32.03;17.93;;;0.30;99.90;;;;;;5120039;27;20251;-81
2022/12/10 12:17:54;;;;;;;34.63;18.37;;;0.50;99.90;;;;;;5132769;27;20186;-81
2022/12/10 12:20:30;;;;;;;28.20;16.93;;;0.50;99.90;;;;;;5150303;27;20201;-79
2022/12/10 12:23:19;;;;;;;35.73;17.63;;;0.60;99.90;;;;;;5156018;27;20328;-80
2022/12/10 12:25:48;;;;;;;30.87;17.60;;;0.70;99.90;;;;;;5144535;27;20269;-81
2022/12/10 12:28:34;;;;;;;33.60;18.00;;;0.80;99.90;;;;;;5118722;27;20186;-79
2022/12/10 12:31:14;;;;;;;33.10;18.47;;;0.80;99.90;;;;;;5137196;27;20176;-78
2022/12/10 12:33:56;;;;;;;31.27;17.07;;;0.90;99.90;;;;;;5117526;27;20197;-77
2022/12/10 12:36:28;;;;;;;30.73;17.70;;;1.00;99.90;;;;;;5135107;27;20165;-76
2022/12/10 12:39:28;;;;;;;37.30;18.10;;;1.00;99.90;;;;;;5135451;27;20221;-76
2022/12/10 12:42:07;;;;;;;31.60;17.33;;;1.00;99.90;;;;;;5117127;27;20180;-80
2022/12/10 12:45:03;;;;;;;34.23;17.40;;;1.00;99.90;;;;;;5136320;27;20541;-79
2022/12/10 12:47:29;;;;;;;29.43;16.13;;;1.10;99.90;;;;;;5137560;27;20188;-79
2022/12/10 12:49:56;;;;;;;30.07;16.33;;;1.10;99.90;;;;;;5118052;27;20184;-79
2022/12/10 12:52:44;;;;;;;34.47;18.63;;;1.10;99.90;;;;;;5117936;27;20525;-81
2022/12/10 12:55:44;;;;;;;29.57;16.57;;;1.10;99.90;;;;;;5135417;27;20571;-77
2022/12/10 12:58:17;;;;;;;29.57;16.37;;;1.10;99.90;;;;;;5110602;28;20197;-79
2022/12/10 13:00:47;;;;;;;30.83;15.77;;;1.10;99.90;;;;;;5117239;28;20258;-79
2022/12/10 13:03:24;;;;;;;34.57;16.77;;;1.10;99.90;;;;;;5098959;28;20216;-79
2022/12/10 13:05:50;;;;;;;26.90;16.47;;;1.20;99.90;;;;;;5099956;28;20196;-79
2022/12/10 13:08:18;;;;;;;32.77;17.77;;;1.20;99.90;;;;;;5118226;28;20168;-78